FDX19 PANC-RJBB
Flight info
| Callsign | FDX19 |
|---|---|
| Flight time | N/A |
| Altitude | 32000 |
| Route | NODLE R220 NANZA/N0478F330 R220 NATES/N0488F340 R220 NRKEY/N0482F350 R220 NUBDA/N0473F360 R220 IXE Y88 NAKTU Y12 KEC Y43 KISEI Y46 EVERT |
| Aircraft | MD11/H-SDE1E2E3FGHIJ2J3J4J5M1RWXY/LB1D1 |
Departure
| Time | N/A |
|---|---|
| Airport | Ted Stevens Anchorage International Airport (PANC) |
Arrival
| Time | 2026-05-07 19:22 |
|---|---|
| Airport | Kansai International Airport (RJBB) |
| Time | Latitude | Longitude | Altitude | Speed | Heading |
|---|---|---|---|---|---|
| 2026-05-07 18:50 | 33.48589 | 135.82623 | 31576 ft | 428 kts | 228° |
| 2026-05-07 18:50 | 33.46724 | 135.79921 | 30985 ft | 415 kts | 239° |
| 2026-05-07 18:51 | 33.45477 | 135.76857 | 30305 ft | 407 kts | 252° |
| 2026-05-07 18:51 | 33.44896 | 135.73575 | 29600 ft | 401 kts | 264° |
| 2026-05-07 18:51 | 33.44851 | 135.70257 | 28923 ft | 399 kts | 270° |
| 2026-05-07 18:51 | 33.45021 | 135.66926 | 28265 ft | 402 kts | 272° |
| 2026-05-07 18:52 | 33.45243 | 135.63621 | 27619 ft | 403 kts | 272° |
| 2026-05-07 18:52 | 33.45460 | 135.60270 | 26971 ft | 404 kts | 272° |
| 2026-05-07 18:52 | 33.45654 | 135.56905 | 26325 ft | 404 kts | 271° |
| 2026-05-07 18:52 | 33.45826 | 135.53540 | 25675 ft | 405 kts | 271° |
| 2026-05-07 18:53 | 33.45984 | 135.50170 | 25029 ft | 406 kts | 270° |
| 2026-05-07 18:53 | 33.46133 | 135.46794 | 24384 ft | 406 kts | 270° |
| 2026-05-07 18:53 | 33.46278 | 135.43409 | 23738 ft | 407 kts | 270° |
| 2026-05-07 18:53 | 33.46429 | 135.40018 | 23016 ft | 409 kts | 271° |
| 2026-05-07 18:54 | 33.46783 | 135.36617 | 22336 ft | 414 kts | 278° |
| 2026-05-07 18:54 | 33.47652 | 135.33305 | 21674 ft | 422 kts | 290° |
| 2026-05-07 18:54 | 33.49180 | 135.30268 | 21013 ft | 432 kts | 303° |
| 2026-05-07 18:54 | 33.51253 | 135.27639 | 20354 ft | 436 kts | 311° |
| 2026-05-07 18:55 | 33.53551 | 135.25256 | 19675 ft | 435 kts | 315° |
| 2026-05-07 18:55 | 33.55896 | 135.22974 | 19054 ft | 433 kts | 315° |
| 2026-05-07 18:55 | 33.58223 | 135.20709 | 18441 ft | 429 kts | 315° |
| 2026-05-07 18:55 | 33.60487 | 135.18462 | 17778 ft | 425 kts | 314° |
| 2026-05-07 18:56 | 33.62735 | 135.16182 | 17130 ft | 421 kts | 314° |
| 2026-05-07 18:56 | 33.64917 | 135.13872 | 16503 ft | 414 kts | 309° |
| 2026-05-07 18:56 | 33.66668 | 135.11196 | 15902 ft | 403 kts | 297° |
| 2026-05-07 18:56 | 33.68032 | 135.08290 | 15322 ft | 397 kts | 292° |
| 2026-05-07 18:57 | 33.69242 | 135.05326 | 14755 ft | 394 kts | 291° |
| 2026-05-07 18:57 | 33.70410 | 135.02366 | 14229 ft | 390 kts | 291° |
| 2026-05-07 18:57 | 33.71578 | 134.99429 | 13882 ft | 389 kts | 292° |
| 2026-05-07 18:57 | 33.72731 | 134.96577 | 13525 ft | 388 kts | 292° |
| 2026-05-07 18:58 | 33.73922 | 134.93675 | 13143 ft | 386 kts | 292° |
| 2026-05-07 18:58 | 33.75118 | 134.90788 | 12936 ft | 384 kts | 292° |
| 2026-05-07 18:58 | 33.76309 | 134.87920 | 12778 ft | 385 kts | 292° |
| 2026-05-07 18:58 | 33.77195 | 134.84928 | 12020 ft | 375 kts | 278° |
| 2026-05-07 18:59 | 33.77447 | 134.81846 | 11581 ft | 363 kts | 269° |
| 2026-05-07 18:59 | 33.77451 | 134.78880 | 11205 ft | 347 kts | 267° |
| 2026-05-07 18:59 | 33.77393 | 134.76040 | 10841 ft | 333 kts | 266° |
| 2026-05-07 18:59 | 33.77333 | 134.73305 | 10501 ft | 321 kts | 266° |
| 2026-05-07 19:00 | 33.77287 | 134.70713 | 10280 ft | 308 kts | 267° |
| 2026-05-07 19:00 | 33.77253 | 134.68195 | 10107 ft | 294 kts | 267° |
| 2026-05-07 19:00 | 33.77231 | 134.65802 | 9964 ft | 280 kts | 268° |
| 2026-05-07 19:00 | 33.77462 | 134.63538 | 9884 ft | 268 kts | 284° |
| 2026-05-07 19:01 | 33.78342 | 134.61616 | 9850 ft | 263 kts | 308° |
| 2026-05-07 19:01 | 33.79736 | 134.60191 | 9902 ft | 267 kts | 319° |
| 2026-05-07 19:01 | 33.81269 | 134.58915 | 9981 ft | 268 kts | 321° |
| 2026-05-07 19:01 | 33.82822 | 134.57670 | 10008 ft | 269 kts | 321° |
| 2026-05-07 19:02 | 33.84377 | 134.56424 | 10010 ft | 268 kts | 320° |
| 2026-05-07 19:02 | 33.85740 | 134.54935 | 10014 ft | 270 kts | 308° |
| 2026-05-07 19:02 | 33.87267 | 134.53516 | 9982 ft | 286 kts | 330° |
| 2026-05-07 19:02 | 33.89229 | 134.52970 | 9924 ft | 296 kts | 356° |
| 2026-05-07 19:03 | 33.91273 | 134.53430 | 9877 ft | 304 kts | 16° |
| 2026-05-07 19:03 | 33.93254 | 134.54369 | 9824 ft | 306 kts | 19° |
| 2026-05-07 19:03 | 33.95250 | 134.55242 | 9754 ft | 304 kts | 14° |
| 2026-05-07 19:03 | 33.97287 | 134.55924 | 9691 ft | 303 kts | 10° |
| 2026-05-07 19:04 | 33.99341 | 134.56436 | 9629 ft | 301 kts | 6° |
| 2026-05-07 19:04 | 34.01416 | 134.56834 | 9564 ft | 301 kts | 4° |
| 2026-05-07 19:04 | 34.03460 | 134.57150 | 9494 ft | 300 kts | 3° |
| 2026-05-07 19:04 | 34.05532 | 134.57422 | 9435 ft | 299 kts | 2° |
| 2026-05-07 19:05 | 34.07602 | 134.57665 | 9368 ft | 299 kts | 1° |
| 2026-05-07 19:05 | 34.09668 | 134.57889 | 9303 ft | 298 kts | 1° |
| 2026-05-07 19:05 | 34.11733 | 134.58101 | 9238 ft | 298 kts | 1° |
| 2026-05-07 19:05 | 34.13797 | 134.58332 | 9109 ft | 299 kts | 3° |
| 2026-05-07 19:06 | 34.15841 | 134.58785 | 8926 ft | 299 kts | 12° |
| 2026-05-07 19:06 | 34.19606 | 134.60922 | 8546 ft | 302 kts | 34° |
| 2026-05-07 19:06 | 34.21173 | 134.62608 | 8353 ft | 303 kts | 46° |
| 2026-05-07 19:07 | 34.22567 | 134.64522 | 8180 ft | 303 kts | 49° |
| 2026-05-07 19:07 | 34.23904 | 134.66485 | 7983 ft | 302 kts | 50° |
| 2026-05-07 19:07 | 34.25230 | 134.68453 | 7725 ft | 301 kts | 50° |
| 2026-05-07 19:07 | 34.26387 | 134.70165 | 7502 ft | 299 kts | 50° |
| 2026-05-07 19:08 | 34.27706 | 134.72102 | 7231 ft | 298 kts | 49° |
| 2026-05-07 19:08 | 34.29022 | 134.74027 | 6955 ft | 296 kts | 49° |
| 2026-05-07 19:08 | 34.30336 | 134.75940 | 6694 ft | 295 kts | 49° |
| 2026-05-07 19:08 | 34.31644 | 134.77843 | 6477 ft | 293 kts | 49° |
| 2026-05-07 19:09 | 34.32947 | 134.79736 | 6317 ft | 291 kts | 49° |
| 2026-05-07 19:09 | 34.34226 | 134.81593 | 6198 ft | 291 kts | 49° |
| 2026-05-07 19:09 | 34.35519 | 134.83470 | 6075 ft | 290 kts | 49° |
| 2026-05-07 19:09 | 34.36810 | 134.85344 | 5951 ft | 288 kts | 49° |
| 2026-05-07 19:10 | 34.38092 | 134.87207 | 5774 ft | 287 kts | 49° |
| 2026-05-07 19:10 | 34.39368 | 134.89060 | 5600 ft | 286 kts | 49° |
| 2026-05-07 19:10 | 34.40637 | 134.90906 | 5427 ft | 284 kts | 49° |
| 2026-05-07 19:10 | 34.41900 | 134.92743 | 5250 ft | 283 kts | 49° |
| 2026-05-07 19:11 | 34.43143 | 134.94551 | 5089 ft | 282 kts | 49° |
| 2026-05-07 19:11 | 34.44396 | 134.96376 | 4913 ft | 280 kts | 49° |
| 2026-05-07 19:11 | 34.45639 | 134.98190 | 4744 ft | 279 kts | 50° |
| 2026-05-07 19:11 | 34.46875 | 134.99997 | 4565 ft | 278 kts | 50° |
| 2026-05-07 19:12 | 34.48105 | 135.01796 | 4394 ft | 277 kts | 50° |
| 2026-05-07 19:12 | 34.49332 | 135.03589 | 4218 ft | 276 kts | 50° |
| 2026-05-07 19:12 | 34.50556 | 135.05378 | 4057 ft | 274 kts | 50° |
| 2026-05-07 19:12 | 34.51771 | 135.07154 | 4017 ft | 274 kts | 50° |
| 2026-05-07 19:13 | 34.52992 | 135.08938 | 4015 ft | 274 kts | 50° |
| 2026-05-07 19:13 | 34.54208 | 135.10717 | 4011 ft | 274 kts | 50° |
| 2026-05-07 19:13 | 34.55412 | 135.12478 | 4012 ft | 274 kts | 50° |
| 2026-05-07 19:13 | 34.56627 | 135.14265 | 4013 ft | 275 kts | 50° |
| 2026-05-07 19:14 | 34.57844 | 135.16057 | 4009 ft | 275 kts | 50° |
| 2026-05-07 19:14 | 34.59061 | 135.17851 | 4013 ft | 275 kts | 50° |
| 2026-05-07 19:14 | 34.60153 | 135.19754 | 4007 ft | 275 kts | 65° |
| 2026-05-07 19:14 | 34.60639 | 135.21976 | 3933 ft | 271 kts | 86° |
| 2026-05-07 19:15 | 34.60696 | 135.24212 | 3818 ft | 256 kts | 92° |
| 2026-05-07 19:15 | 34.60661 | 135.26319 | 3691 ft | 246 kts | 94° |
| 2026-05-07 19:15 | 34.60611 | 135.28386 | 3521 ft | 241 kts | 94° |
| 2026-05-07 19:15 | 34.60566 | 135.30347 | 3379 ft | 222 kts | 94° |
| 2026-05-07 19:16 | 34.60526 | 135.32153 | 3265 ft | 209 kts | 94° |
| 2026-05-07 19:16 | 34.60486 | 135.33901 | 3170 ft | 207 kts | 94° |
| 2026-05-07 19:16 | 34.60295 | 135.35608 | 3037 ft | 202 kts | 113° |
| 2026-05-07 19:16 | 34.59512 | 135.36944 | 2927 ft | 192 kts | 149° |
| 2026-05-07 19:17 | 34.58291 | 135.37427 | 2887 ft | 185 kts | 179° |
| 2026-05-07 19:17 | 34.57001 | 135.37483 | 2837 ft | 185 kts | 185° |
| 2026-05-07 19:17 | 34.55752 | 135.37177 | 2763 ft | 183 kts | 199° |
| 2026-05-07 19:17 | 34.54539 | 135.36686 | 2657 ft | 183 kts | 200° |
| 2026-05-07 19:18 | 34.53455 | 135.35964 | 2493 ft | 180 kts | 224° |
| 2026-05-07 19:18 | 34.52590 | 135.34857 | 2358 ft | 181 kts | 226° |
| 2026-05-07 19:18 | 34.51730 | 135.33818 | 2142 ft | 168 kts | 225° |
| 2026-05-07 19:18 | 34.50959 | 135.32774 | 1954 ft | 166 kts | 230° |
| 2026-05-07 19:19 | 34.50232 | 135.31681 | 1703 ft | 166 kts | 230° |
| 2026-05-07 19:19 | 34.49505 | 135.30590 | 1442 ft | 165 kts | 230° |
| 2026-05-07 19:19 | 34.48787 | 135.29512 | 1151 ft | 161 kts | 230° |
| 2026-05-07 19:19 | 34.48094 | 135.28469 | 928 ft | 158 kts | 230° |
| 2026-05-07 19:20 | 34.47389 | 135.27425 | 889 ft | 161 kts | 231° |
| 2026-05-07 19:20 | 34.46689 | 135.26366 | 591 ft | 161 kts | 232° |
| 2026-05-07 19:20 | 34.46006 | 135.25305 | 352 ft | 160 kts | 231° |
| 2026-05-07 19:20 | 34.45298 | 135.24260 | 139 ft | 159 kts | 231° |
| 2026-05-07 19:21 | 34.44612 | 135.23243 | 40 ft | 142 kts | 231° |
| 2026-05-07 19:21 | 34.44078 | 135.22419 | 38 ft | 106 kts | 233° |
| 2026-05-07 19:21 | 34.43700 | 135.21800 | 39 ft | 74 kts | 232° |
| 2026-05-07 19:21 | 34.43397 | 135.21409 | 39 ft | 58 kts | 225° |
| 2026-05-07 19:22 | 34.43179 | 135.21090 | 37 ft | 30 kts | 225° |
| 2026-05-07 19:22 | 34.43104 | 135.21045 | 36 ft | 2 kts | 194° |
| 2026-05-07 19:22 | 34.43097 | 135.21039 | 36 ft | 1 kts | 219° |
| 2026-05-07 19:22 | 34.43095 | 135.21022 | 36 ft | 2 kts | 266° |
| 2026-05-07 19:23 | 34.43093 | 135.20986 | 36 ft | 11 kts | 257° |
| 2026-05-07 19:23 | 34.43044 | 135.20897 | 35 ft | 13 kts | 231° |
| 2026-05-07 19:23 | 34.42975 | 135.20794 | 33 ft | 19 kts | 231° |
| 2026-05-07 19:23 | 34.42883 | 135.20663 | 31 ft | 14 kts | 213° |
| 2026-05-07 19:24 | 34.42829 | 135.20670 | 32 ft | 7 kts | 147° |
| 2026-05-07 19:24 | 34.42783 | 135.20717 | 34 ft | 10 kts | 140° |
| 2026-05-07 19:24 | 34.42746 | 135.20779 | 35 ft | 7 kts | 103° |
| 2026-05-07 19:24 | 34.42758 | 135.20814 | 36 ft | 8 kts | 55° |
| 2026-05-07 19:25 | 34.42816 | 135.20905 | 36 ft | 16 kts | 51° |
| 2026-05-07 19:25 | 34.42881 | 135.21005 | 36 ft | 14 kts | 52° |
| 2026-05-07 19:25 | 34.42939 | 135.21092 | 36 ft | 12 kts | 53° |
| 2026-05-07 19:25 | 34.42989 | 135.21169 | 36 ft | 11 kts | 50° |
| 2026-05-07 19:26 | 34.43044 | 135.21249 | 36 ft | 14 kts | 50° |
| 2026-05-07 19:26 | 34.43115 | 135.21351 | 36 ft | 18 kts | 50° |
| 2026-05-07 19:26 | 34.43203 | 135.21475 | 36 ft | 20 kts | 52° |
| 2026-05-07 19:26 | 34.43293 | 135.21616 | 36 ft | 22 kts | 52° |
| 2026-05-07 19:27 | 34.43393 | 135.21768 | 36 ft | 24 kts | 52° |
| 2026-05-07 19:27 | 34.43500 | 135.21927 | 36 ft | 25 kts | 51° |
| 2026-05-07 19:27 | 34.43613 | 135.22097 | 35 ft | 27 kts | 51° |
| 2026-05-07 19:27 | 34.43734 | 135.22276 | 36 ft | 28 kts | 51° |
| 2026-05-07 19:28 | 34.43783 | 135.22394 | 36 ft | 11 kts | 105° |
| 2026-05-07 19:28 | 34.43753 | 135.22437 | 34 ft | 1 kts | 156° |
| 2026-05-07 19:28 | 34.43729 | 135.22428 | 36 ft | 8 kts | 205° |
| 2026-05-07 19:28 | 34.43680 | 135.22361 | 36 ft | 10 kts | 231° |
| 2026-05-07 19:29 | 34.43642 | 135.22311 | 36 ft | 3 kts | 216° |
| 2026-05-07 19:29 | 34.43634 | 135.22311 | 36 ft | 1 kts | 185° |
| 2026-05-07 19:29 | 34.43625 | 135.22315 | 36 ft | 2 kts | 161° |
| 2026-05-07 19:29 | 34.43603 | 135.22333 | 36 ft | 5 kts | 143° |
| 2026-05-07 19:30 | 34.43580 | 135.22354 | 36 ft | 3 kts | 142° |
| 2026-05-07 19:30 | 34.43574 | 135.22360 | 35 ft | 0 kts | 141° |
| 2026-05-07 19:30 | 34.43572 | 135.22363 | 36 ft | 0 kts | 141° |